createdAt,value
2023-05-05T00:02:22.952Z,5.80
2023-05-05T00:04:49.232Z,5.80
2023-05-05T00:07:15.556Z,5.70
2023-05-05T00:09:42.356Z,5.70
2023-05-05T00:12:08.559Z,5.60
2023-05-05T00:14:34.710Z,5.50
2023-05-05T00:17:00.931Z,5.50
2023-05-05T00:19:27.175Z,5.40
2023-05-05T00:21:53.335Z,5.50
2023-05-05T00:24:19.518Z,5.50
2023-05-05T00:26:45.666Z,5.60
2023-05-05T00:29:11.844Z,5.60
2023-05-05T00:31:38.127Z,5.60
2023-05-05T00:34:04.320Z,5.70
2023-05-05T00:36:30.584Z,5.70
2023-05-05T00:38:56.807Z,5.70
2023-05-05T00:41:23.052Z,5.80
2023-05-05T00:43:49.186Z,5.70
2023-05-05T00:46:33.690Z,5.70
2023-05-05T00:49:00.039Z,5.60
2023-05-05T00:51:26.249Z,5.60
2023-05-05T00:53:52.545Z,5.70
2023-05-05T00:56:21.290Z,5.70
2023-05-05T00:58:48.557Z,5.70
2023-05-05T01:01:15.756Z,5.70
2023-05-05T01:03:42.047Z,5.70
2023-05-05T01:08:00.562Z,5.80
2023-05-05T01:11:55.877Z,5.80
2023-05-05T01:14:42.516Z,5.80
2023-05-05T01:17:19.446Z,5.70
2023-05-05T01:20:35.495Z,5.70
2023-05-05T01:23:05.556Z,5.70
2023-05-05T01:29:50.151Z,5.90
2023-05-05T01:32:19.841Z,6.00
2023-05-05T01:35:03.866Z,6.30
2023-05-05T01:37:37.896Z,6.30
2023-05-05T01:40:05.588Z,7.70
2023-05-05T01:42:32.174Z,6.60
2023-05-05T01:45:05.803Z,6.70
2023-05-05T01:47:32.186Z,6.70
2023-05-05T01:49:58.411Z,6.70
2023-05-05T01:52:25.363Z,6.70
2023-05-05T01:54:51.724Z,6.70
2023-05-05T01:57:18.621Z,6.70
2023-05-05T01:59:44.950Z,6.70
2023-05-05T02:02:11.291Z,6.80
2023-05-05T02:04:40.511Z,6.80
2023-05-05T02:07:06.693Z,6.80
2023-05-05T02:09:32.825Z,6.80
2023-05-05T02:11:59.235Z,6.90
2023-05-05T02:14:26.701Z,6.90
2023-05-05T02:16:53.088Z,7.00
2023-05-05T02:19:19.334Z,7.00
2023-05-05T02:21:45.634Z,6.90
2023-05-05T02:24:11.764Z,6.90
2023-05-05T02:26:40.828Z,6.80
2023-05-05T02:29:18.140Z,6.80
2023-05-05T02:31:49.412Z,6.70
2023-05-05T02:34:19.600Z,6.70
2023-05-05T02:36:46.044Z,6.60
2023-05-05T02:39:14.043Z,6.60
2023-05-05T02:41:40.504Z,6.50
2023-05-05T02:44:06.942Z,6.50
2023-05-05T02:46:33.202Z,6.50
2023-05-05T02:48:59.409Z,6.50
2023-05-05T02:51:25.731Z,6.40
2023-05-05T02:53:51.884Z,6.50
2023-05-05T02:56:40.611Z,6.50
2023-05-05T02:59:31.500Z,6.50
2023-05-05T03:02:10.441Z,6.40
2023-05-05T03:04:42.461Z,6.30
2023-05-05T03:07:12.482Z,6.20
2023-05-05T03:09:45.229Z,6.30
2023-05-05T03:12:13.642Z,6.30
2023-05-05T03:14:41.487Z,6.30
2023-05-05T03:17:09.936Z,6.30
2023-05-05T03:19:36.851Z,6.30
2023-05-05T03:22:03.404Z,6.40
2023-05-05T03:24:29.534Z,6.40
2023-05-05T03:26:55.708Z,6.40
2023-05-05T03:29:21.851Z,6.50
2023-05-05T03:31:48.360Z,6.40
2023-05-05T03:34:14.834Z,6.40
2023-05-05T03:36:41.211Z,6.40
2023-05-05T03:39:07.577Z,6.40
2023-05-05T03:41:33.793Z,6.50
2023-05-05T03:44:00.067Z,6.70
2023-05-05T03:46:26.238Z,7.00
2023-05-05T03:48:52.445Z,7.10
2023-05-05T03:51:18.629Z,7.10
2023-05-05T03:53:44.855Z,7.00
2023-05-05T03:56:11.103Z,7.00
2023-05-05T03:58:37.269Z,7.00
2023-05-05T04:01:04.389Z,7.00
2023-05-05T04:03:30.748Z,6.90
2023-05-05T04:05:57.098Z,6.90
2023-05-05T04:08:23.263Z,7.00
2023-05-05T04:10:49.422Z,7.10
2023-05-05T04:13:15.646Z,7.10
2023-05-05T04:15:47.766Z,7.30
2023-05-05T04:18:14.000Z,7.30
2023-05-05T04:20:40.159Z,7.30
2023-05-05T04:23:06.549Z,7.30
2023-05-05T04:25:33.125Z,7.30
2023-05-05T04:27:59.252Z,7.30
2023-05-05T04:30:25.388Z,7.30
2023-05-05T04:32:51.633Z,7.30
2023-05-05T04:35:18.291Z,7.40
2023-05-05T04:37:44.452Z,7.30
2023-05-05T04:40:11.882Z,7.30
2023-05-05T04:42:38.043Z,7.60
2023-05-05T04:45:06.091Z,7.90
2023-05-05T04:47:37.043Z,6.60
2023-05-05T04:50:03.816Z,8.40
2023-05-05T04:52:30.022Z,8.60
2023-05-05T04:54:56.166Z,8.80
2023-05-05T04:57:22.324Z,8.90
2023-05-05T04:59:48.466Z,8.90
2023-05-05T05:02:14.843Z,9.40
2023-05-05T05:04:41.193Z,9.90
2023-05-05T05:07:07.377Z,9.90
2023-05-05T05:09:33.624Z,10.20
2023-05-05T05:12:02.156Z,10.30
2023-05-05T05:14:28.983Z,10.80
2023-05-05T05:16:55.213Z,11.10
2023-05-05T05:19:21.577Z,11.20
2023-05-05T05:21:47.733Z,11.20
2023-05-05T05:24:13.934Z,11.20
2023-05-05T05:26:40.062Z,11.50
2023-05-05T05:29:06.553Z,11.70
2023-05-05T05:31:33.763Z,11.80
2023-05-05T05:34:00.380Z,12.20
2023-05-05T05:36:26.560Z,12.50
2023-05-05T05:38:52.705Z,12.80
2023-05-05T05:41:18.854Z,13.00
2023-05-05T05:43:45.067Z,13.40
2023-05-05T05:46:11.794Z,13.60
2023-05-05T05:48:37.947Z,13.80
2023-05-05T05:51:04.167Z,13.90
2023-05-05T05:53:30.502Z,13.90
2023-05-05T05:55:56.641Z,14.20
2023-05-05T05:58:22.845Z,14.50
2023-05-05T06:00:49.254Z,14.70
2023-05-05T06:03:15.693Z,14.60
2023-05-05T06:05:41.999Z,14.60
2023-05-05T06:08:08.501Z,15.00
2023-05-05T06:10:34.972Z,15.00
2023-05-05T06:13:01.572Z,15.20
2023-05-05T06:15:27.863Z,15.60
2023-05-05T06:17:54.121Z,16.10
2023-05-05T06:20:20.405Z,16.90
2023-05-05T06:22:46.884Z,17.60
2023-05-05T06:25:13.089Z,17.80
2023-05-05T06:27:39.321Z,18.10
2023-05-05T06:30:07.196Z,18.50
2023-05-05T06:32:33.933Z,18.10
2023-05-05T06:35:00.835Z,19.30
2023-05-05T06:37:27.097Z,20.30
2023-05-05T06:39:53.367Z,20.10
2023-05-05T06:42:19.604Z,20.70
2023-05-05T06:44:45.765Z,20.80
2023-05-05T06:47:11.958Z,21.80
2023-05-05T06:49:38.230Z,21.50
2023-05-05T06:52:04.771Z,21.60
2023-05-05T06:54:30.954Z,22.60
2023-05-05T06:56:59.294Z,22.60
2023-05-05T06:59:26.103Z,22.40
2023-05-05T07:01:52.444Z,22.50
2023-05-05T07:04:18.830Z,22.00
2023-05-05T07:06:45.240Z,21.20
2023-05-05T07:09:11.948Z,20.90
2023-05-05T07:11:38.509Z,20.80
2023-05-05T07:14:05.588Z,21.40
2023-05-05T07:16:33.948Z,22.20
2023-05-05T07:19:00.337Z,23.60
2023-05-05T07:21:26.563Z,22.90
2023-05-05T07:23:53.261Z,23.10
2023-05-05T07:26:19.536Z,22.40
2023-05-05T07:28:45.694Z,22.40
2023-05-05T07:31:11.839Z,22.10
2023-05-05T07:33:38.021Z,21.80
2023-05-05T07:36:04.990Z,21.40
2023-05-05T07:38:31.314Z,22.00
2023-05-05T07:40:57.544Z,23.30
2023-05-05T07:43:23.832Z,23.10
2023-05-05T07:45:50.204Z,23.20
2023-05-05T07:48:16.408Z,23.90
2023-05-05T07:50:42.730Z,23.80
2023-05-05T07:53:14.212Z,23.90
2023-05-05T07:55:41.153Z,25.60
2023-05-05T07:58:07.907Z,24.50
2023-05-05T08:00:34.083Z,25.30
2023-05-05T08:03:01.022Z,25.20
2023-05-05T08:05:27.403Z,25.70
2023-05-05T08:07:53.614Z,26.70
2023-05-05T08:10:21.491Z,26.50
2023-05-05T08:12:47.824Z,27.80
2023-05-05T08:15:13.975Z,25.80
2023-05-05T08:17:50.086Z,25.00
2023-05-05T08:20:17.113Z,25.40
2023-05-05T08:22:43.474Z,25.60
2023-05-05T08:25:12.589Z,26.80
2023-05-05T08:27:39.441Z,27.00
2023-05-05T08:30:06.542Z,26.70
2023-05-05T08:32:32.715Z,25.70
2023-05-05T08:35:00.762Z,25.40
2023-05-05T08:37:26.962Z,25.30
2023-05-05T08:39:53.165Z,26.60
2023-05-05T08:42:32.892Z,25.80
2023-05-05T08:45:03.396Z,26.30
2023-05-05T08:47:31.552Z,27.50
2023-05-05T08:49:57.955Z,26.70
2023-05-05T08:52:24.182Z,26.50
2023-05-05T08:54:54.315Z,25.80
2023-05-05T08:57:25.433Z,26.30
2023-05-05T08:59:51.630Z,25.70
2023-05-05T09:02:17.838Z,25.70
2023-05-05T09:04:44.164Z,26.20
2023-05-05T09:07:10.347Z,26.20
2023-05-05T09:09:37.701Z,25.80
2023-05-05T09:12:04.256Z,25.90
2023-05-05T09:14:30.667Z,25.10
2023-05-05T09:16:56.868Z,25.10
2023-05-05T09:19:23.216Z,26.00
2023-05-05T09:21:49.455Z,26.30
2023-05-05T09:24:15.911Z,25.80
2023-05-05T09:26:43.314Z,24.50
2023-05-05T09:29:09.795Z,25.10
2023-05-05T09:31:36.399Z,26.40
2023-05-05T09:34:13.697Z,26.50
2023-05-05T09:36:49.174Z,26.20
2023-05-05T09:39:19.415Z,26.10
2023-05-05T09:41:46.119Z,26.70
2023-05-05T09:44:12.474Z,25.80
2023-05-05T09:46:48.380Z,26.30
2023-05-05T09:49:17.252Z,26.50
2023-05-05T09:51:46.475Z,26.80
2023-05-05T09:56:51.764Z,27.00
2023-05-05T09:59:18.034Z,26.60
2023-05-05T10:01:44.373Z,26.70
2023-05-05T10:04:25.841Z,26.70
2023-05-05T10:06:52.414Z,26.70
2023-05-05T10:09:18.566Z,25.70
2023-05-05T10:11:46.709Z,25.50
2023-05-05T10:14:17.215Z,25.40
2023-05-05T10:16:50.427Z,25.60
2023-05-05T10:19:17.674Z,25.50
2023-05-05T10:21:49.597Z,24.40
2023-05-05T10:24:26.549Z,24.30
2023-05-05T10:26:53.365Z,24.70
2023-05-05T10:29:38.038Z,23.50
2023-05-05T10:32:18.822Z,24.40
2023-05-05T10:35:00.846Z,24.40
2023-05-05T10:37:27.320Z,24.30
2023-05-05T10:39:53.916Z,24.70
2023-05-05T10:42:20.506Z,25.00
2023-05-05T10:44:48.438Z,24.10
2023-05-05T10:47:16.155Z,23.90
2023-05-05T10:49:59.453Z,24.30
2023-05-05T10:52:58.664Z,25.20
2023-05-05T10:55:41.140Z,25.40
2023-05-05T10:58:07.401Z,25.90
2023-05-05T11:00:52.107Z,25.80
2023-05-05T11:03:19.559Z,25.10
2023-05-05T11:12:54.102Z,25.20
2023-05-05T11:15:54.164Z,24.30
2023-05-05T11:18:36.582Z,24.80
2023-05-05T11:21:16.163Z,24.80
2023-05-05T11:24:07.903Z,24.30
2023-05-05T11:26:50.877Z,23.80
2023-05-05T11:29:17.064Z,23.90
2023-05-05T11:31:43.251Z,23.90
2023-05-05T11:34:27.597Z,23.70
2023-05-05T11:37:06.693Z,23.70
2023-05-05T11:39:38.181Z,23.70
2023-05-05T11:42:26.562Z,24.00
2023-05-05T11:44:53.119Z,23.70
2023-05-05T11:47:28.622Z,24.10
2023-05-05T11:49:55.025Z,23.60
2023-05-05T11:52:23.184Z,23.10
2023-05-05T11:54:49.912Z,23.30
2023-05-05T11:57:18.712Z,23.20
2023-05-05T11:59:58.991Z,23.80
2023-05-05T12:02:29.338Z,24.40
2023-05-05T12:04:56.349Z,24.50
2023-05-05T12:07:41.163Z,24.60
2023-05-05T12:10:08.023Z,24.50
2023-05-05T12:12:39.155Z,24.50
2023-05-05T12:15:07.248Z,24.20
2023-05-05T12:17:45.354Z,24.10
2023-05-05T12:20:12.516Z,24.80
2023-05-05T12:22:39.101Z,24.10
2023-05-05T12:25:06.968Z,24.00
2023-05-05T12:27:34.505Z,23.80
2023-05-05T12:30:16.927Z,24.00
2023-05-05T12:32:43.839Z,24.30
2023-05-05T12:35:10.281Z,24.80
2023-05-05T12:37:36.431Z,24.60
2023-05-05T12:40:05.311Z,24.30
2023-05-05T12:42:32.127Z,24.40
2023-05-05T12:44:58.325Z,24.00
2023-05-05T12:47:31.455Z,23.70
2023-05-05T12:49:59.487Z,23.80
2023-05-05T12:52:43.246Z,23.30
2023-05-05T12:55:10.255Z,23.40
2023-05-05T12:57:37.153Z,23.40
2023-05-05T13:00:17.451Z,23.60
2023-05-05T13:02:43.691Z,23.60
2023-05-05T13:05:10.174Z,23.20
2023-05-05T13:07:49.190Z,22.90
2023-05-05T13:10:15.752Z,23.10
2023-05-05T13:12:41.937Z,23.50
2023-05-05T13:15:09.478Z,23.30
2023-05-05T13:17:35.814Z,23.30
2023-05-05T13:20:02.073Z,23.30
2023-05-05T13:22:28.262Z,23.30
2023-05-05T13:24:54.458Z,22.80
2023-05-05T13:27:20.843Z,22.40
2023-05-05T13:29:47.180Z,22.80
2023-05-05T13:32:13.404Z,23.00
2023-05-05T13:34:39.679Z,22.60
2023-05-05T13:37:05.948Z,22.80
2023-05-05T13:39:32.104Z,22.70
2023-05-05T13:41:58.260Z,22.60
2023-05-05T13:44:24.560Z,22.60
2023-05-05T13:46:51.333Z,22.60
2023-05-05T13:49:17.846Z,22.60
2023-05-05T13:51:46.087Z,22.20
2023-05-05T13:54:12.578Z,22.10
2023-05-05T13:56:38.860Z,22.30
2023-05-05T13:59:05.393Z,22.40
2023-05-05T14:01:31.620Z,22.30
2023-05-05T14:03:58.161Z,21.80
2023-05-05T14:06:25.518Z,21.70
2023-05-05T14:08:51.807Z,21.70
2023-05-05T14:11:20.146Z,21.50
2023-05-05T14:13:46.998Z,21.70
2023-05-05T14:16:14.010Z,21.70
2023-05-05T14:18:40.661Z,21.80
2023-05-05T14:21:07.029Z,21.80
2023-05-05T14:23:33.661Z,21.70
2023-05-05T14:26:00.857Z,22.00
2023-05-05T14:28:27.180Z,21.90
2023-05-05T14:30:53.510Z,22.00
2023-05-05T14:33:19.773Z,22.10
2023-05-05T14:35:46.381Z,22.10
2023-05-05T14:38:12.558Z,22.20
2023-05-05T14:40:39.077Z,22.00
2023-05-05T14:43:05.195Z,21.50
2023-05-05T14:45:31.692Z,21.50
2023-05-05T14:47:57.888Z,21.20
2023-05-05T14:50:24.185Z,21.00
2023-05-05T14:52:50.730Z,21.10
2023-05-05T14:55:17.325Z,21.20
2023-05-05T14:57:44.298Z,21.10
2023-05-05T15:00:11.257Z,21.10
2023-05-05T15:02:37.803Z,20.90
2023-05-05T15:05:05.121Z,20.80
2023-05-05T15:07:31.489Z,20.90
2023-05-05T15:09:57.828Z,20.80
2023-05-05T15:12:25.328Z,21.00
2023-05-05T15:14:51.675Z,21.20
2023-05-05T15:17:17.813Z,21.30
2023-05-05T15:19:44.077Z,21.50
2023-05-05T15:22:10.331Z,21.60
2023-05-05T15:24:36.756Z,21.70
2023-05-05T15:27:03.184Z,21.60
2023-05-05T15:29:29.385Z,21.30
2023-05-05T15:31:55.819Z,21.00
2023-05-05T15:34:22.813Z,20.50
2023-05-05T15:36:49.283Z,20.20
2023-05-05T15:39:15.560Z,20.00
2023-05-05T15:41:41.768Z,19.90
2023-05-05T15:44:10.712Z,19.80
2023-05-05T15:46:36.916Z,19.60
2023-05-05T15:49:03.704Z,19.60
2023-05-05T15:51:31.555Z,19.70
2023-05-05T15:53:58.813Z,20.00
2023-05-05T15:56:26.702Z,20.20
2023-05-05T15:58:53.513Z,20.30
2023-05-05T16:01:19.812Z,20.30
2023-05-05T16:03:46.338Z,20.40
2023-05-05T16:06:12.592Z,20.40
2023-05-05T16:08:38.806Z,20.40
2023-05-05T16:11:05.214Z,20.20
2023-05-05T16:13:31.438Z,20.10
2023-05-05T16:15:57.678Z,20.10
2023-05-05T16:18:23.898Z,20.00
2023-05-05T16:20:50.277Z,19.90
2023-05-05T16:23:16.586Z,19.80
2023-05-05T16:25:42.816Z,19.60
2023-05-05T16:28:09.066Z,19.50
2023-05-05T16:30:35.451Z,19.20
2023-05-05T16:33:02.522Z,19.10
2023-05-05T16:35:28.866Z,19.00
2023-05-05T16:37:55.550Z,18.90
2023-05-05T16:40:21.888Z,18.80
2023-05-05T16:42:48.439Z,18.70
2023-05-05T16:45:14.724Z,18.70
2023-05-05T16:47:40.898Z,18.80
2023-05-05T16:50:07.642Z,18.80
2023-05-05T16:52:33.825Z,18.80
2023-05-05T16:55:00.264Z,18.80
2023-05-05T16:57:26.472Z,18.70
2023-05-05T16:59:55.531Z,18.60
2023-05-05T17:02:21.852Z,18.50
2023-05-05T17:04:48.086Z,18.30
2023-05-05T17:07:14.382Z,18.20
2023-05-05T17:09:40.716Z,18.10
2023-05-05T17:12:07.460Z,17.90
2023-05-05T17:14:35.143Z,17.70
2023-05-05T17:17:01.344Z,17.60
2023-05-05T17:19:28.142Z,17.40
2023-05-05T17:21:54.659Z,17.30
2023-05-05T17:24:21.041Z,17.20
2023-05-05T17:26:47.279Z,17.10
2023-05-05T17:29:14.622Z,17.00
2023-05-05T17:31:43.749Z,16.90
2023-05-05T17:34:10.284Z,16.80
2023-05-05T17:36:36.687Z,16.70
2023-05-05T17:39:03.023Z,16.60
2023-05-05T17:41:29.203Z,16.50
2023-05-05T17:43:55.441Z,16.50
2023-05-05T17:46:21.754Z,16.40
2023-05-05T17:48:48.099Z,16.40
2023-05-05T17:51:14.563Z,16.30
2023-05-05T17:53:40.998Z,16.20
2023-05-05T17:56:09.033Z,16.10
2023-05-05T17:58:35.649Z,16.00
2023-05-05T18:01:02.038Z,15.90
2023-05-05T18:03:28.442Z,16.00
2023-05-05T18:05:55.467Z,16.20
2023-05-05T18:08:24.490Z,16.30
2023-05-05T18:10:50.765Z,16.20
2023-05-05T18:13:16.981Z,16.00
2023-05-05T18:15:43.509Z,16.00
2023-05-05T18:18:10.010Z,17.90
2023-05-05T18:20:36.381Z,15.80
2023-05-05T18:23:02.643Z,15.80
2023-05-05T18:25:29.034Z,15.80
2023-05-05T18:27:55.357Z,15.70
2023-05-05T18:30:22.008Z,15.60
2023-05-05T18:32:48.802Z,15.50
2023-05-05T18:35:16.088Z,15.50
2023-05-05T18:37:42.725Z,15.30
2023-05-05T18:40:09.832Z,15.30
2023-05-05T18:42:36.569Z,15.30
2023-05-05T18:45:04.361Z,15.20
2023-05-05T18:47:30.716Z,15.30
2023-05-05T18:49:57.041Z,15.10
2023-05-05T18:52:23.564Z,15.10
2023-05-05T18:54:50.147Z,14.90
2023-05-05T18:57:16.463Z,14.80
2023-05-05T18:59:42.769Z,14.80
2023-05-05T19:02:09.430Z,14.70
2023-05-05T19:04:37.222Z,14.60
2023-05-05T19:07:04.215Z,14.50
2023-05-05T19:09:33.672Z,14.40
2023-05-05T19:12:02.296Z,14.40
2023-05-05T19:14:29.671Z,14.30
2023-05-05T19:16:58.259Z,14.20
2023-05-05T19:19:24.919Z,14.10
2023-05-05T19:21:51.699Z,14.00
2023-05-05T19:24:18.187Z,13.90
2023-05-05T19:26:44.696Z,13.90
2023-05-05T19:29:12.500Z,13.90
2023-05-05T19:31:39.327Z,13.90
2023-05-05T19:34:05.748Z,13.80
2023-05-05T19:36:33.439Z,13.90
2023-05-05T19:39:02.523Z,13.80
2023-05-05T19:41:31.101Z,13.70
2023-05-05T19:43:58.307Z,13.70
2023-05-05T19:46:25.852Z,13.50
2023-05-05T19:48:53.462Z,13.50
2023-05-05T19:51:22.024Z,13.50
2023-05-05T19:53:50.512Z,13.30
2023-05-05T19:56:17.228Z,13.30
2023-05-05T19:59:00.845Z,13.30
2023-05-05T20:01:36.320Z,13.20
2023-05-05T20:04:06.387Z,13.10
2023-05-05T20:06:36.714Z,13.00
2023-05-05T20:09:04.610Z,13.00
2023-05-05T20:11:32.846Z,13.00
2023-05-05T20:13:59.851Z,13.00
2023-05-05T20:16:26.952Z,12.90
2023-05-05T20:18:53.916Z,12.90
2023-05-05T20:21:20.536Z,12.70
2023-05-05T20:23:46.917Z,12.80
2023-05-05T20:26:13.252Z,12.60
2023-05-05T20:28:42.491Z,12.60
2023-05-05T20:31:11.457Z,12.50
2023-05-05T20:33:39.287Z,12.50
2023-05-05T20:36:06.697Z,12.50
2023-05-05T20:38:33.518Z,12.40
2023-05-05T20:41:00.838Z,12.40
2023-05-05T20:43:29.285Z,12.30
2023-05-05T20:45:55.753Z,12.20
2023-05-05T20:48:22.918Z,12.20
2023-05-05T20:50:50.496Z,12.10
2023-05-05T20:53:19.344Z,12.10
2023-05-05T20:55:45.923Z,12.00
2023-05-05T20:58:12.866Z,12.00
2023-05-05T21:00:40.101Z,12.00
2023-05-05T21:03:06.569Z,11.90
2023-05-05T21:05:33.149Z,11.90
2023-05-05T21:08:01.093Z,11.80
2023-05-05T21:10:29.113Z,11.80
2023-05-05T21:12:57.382Z,11.80
2023-05-05T21:15:25.251Z,11.70
2023-05-05T21:17:52.315Z,11.70
2023-05-05T21:20:19.149Z,11.70
2023-05-05T21:22:45.682Z,11.60
2023-05-05T21:25:14.867Z,11.60
2023-05-05T21:27:41.287Z,11.50
2023-05-05T21:30:10.658Z,11.40
2023-05-05T21:32:38.010Z,11.30
2023-05-05T21:35:05.940Z,11.20
2023-05-05T21:37:32.831Z,11.20
2023-05-05T21:40:00.088Z,11.10
2023-05-05T21:42:28.982Z,11.10
2023-05-05T21:44:55.955Z,11.00
2023-05-05T21:47:23.377Z,11.00
2023-05-05T21:49:49.858Z,11.00
2023-05-05T21:52:20.163Z,11.00
2023-05-05T21:54:46.740Z,10.90
2023-05-05T21:57:12.927Z,10.90
2023-05-05T21:59:39.280Z,10.90
2023-05-05T22:02:05.860Z,10.80
2023-05-05T22:04:32.183Z,12.80
2023-05-05T22:06:59.132Z,10.70
2023-05-05T22:09:25.553Z,10.60
2023-05-05T22:11:51.861Z,10.60
2023-05-05T22:14:18.435Z,10.50
2023-05-05T22:16:45.241Z,10.50
2023-05-05T22:19:11.830Z,10.50
2023-05-05T22:21:38.230Z,10.40
2023-05-05T22:24:06.452Z,10.40
2023-05-05T22:26:32.830Z,10.40
2023-05-05T22:28:59.045Z,10.40
2023-05-05T22:31:25.919Z,10.40
2023-05-05T22:33:52.329Z,10.50
2023-05-05T22:36:18.601Z,10.40
2023-05-05T22:38:45.033Z,10.40
2023-05-05T22:41:11.826Z,10.40
2023-05-05T22:43:38.300Z,10.30
2023-05-05T22:46:04.716Z,10.30
2023-05-05T22:48:31.160Z,10.30
2023-05-05T22:51:00.034Z,10.30
2023-05-05T22:53:26.286Z,10.30
2023-05-05T22:55:52.675Z,10.30
2023-05-05T22:58:20.221Z,10.20
2023-05-05T23:00:46.516Z,10.20
2023-05-05T23:03:13.203Z,8.60
2023-05-05T23:05:39.431Z,10.20
2023-05-05T23:08:05.948Z,10.20
2023-05-05T23:10:32.206Z,10.20
2023-05-05T23:12:58.580Z,7.90
2023-05-05T23:15:25.093Z,10.10
2023-05-05T23:17:51.463Z,10.10
2023-05-05T23:20:17.824Z,10.10
2023-05-05T23:22:44.023Z,9.90
2023-05-05T23:25:10.393Z,10.00
2023-05-05T23:27:37.872Z,10.00
2023-05-05T23:30:05.612Z,10.00
2023-05-05T23:32:32.281Z,10.00
2023-05-05T23:34:58.526Z,10.00
2023-05-05T23:37:24.940Z,10.10
2023-05-05T23:39:51.130Z,10.10
2023-05-05T23:42:17.355Z,10.20
2023-05-05T23:44:43.696Z,10.20
2023-05-05T23:47:09.911Z,10.20
2023-05-05T23:49:36.635Z,10.40
2023-05-05T23:52:03.125Z,10.40
2023-05-05T23:54:29.334Z,10.40
2023-05-05T23:56:55.483Z,10.40
2023-05-05T23:59:21.780Z,10.30
